Time;durP1;ratioP1;P1;durP2;ratioP2;P2;SDS_P1;SDS_P2;PMS_P1;PMS_P2;Temp;Humidity;BMP_temperature;BMP_pressure;BME280_temperature;BME280_humidity;BME280_pressure;Samples;Min_cycle;Max_cycle;Signal;HPM_P1;HPM_P2
2023/05/21 00:00:46;;;;;;;;;;;19.40;86.40;;;;;;5071671;28;19934;-78
2023/05/21 00:03:12;;;;;;;;;;;19.40;86.90;;;;;;5071668;28;19908;-78
2023/05/21 00:05:41;;;;;;;;;;;19.30;87.40;;;;;;5071547;28;19916;-78
2023/05/21 00:08:07;;;;;;;;;;;19.30;86.80;;;;;;5071744;28;19916;-77
2023/05/21 00:10:33;;;;;;;;;;;19.20;86.90;;;;;;5071510;28;19908;-78
2023/05/21 00:12:58;;;;;;;;;;;19.20;87.40;;;;;;5071257;28;19923;-78
2023/05/21 00:15:24;;;;;;;;;;;19.20;87.30;;;;;;5087188;28;19909;-77
2023/05/21 00:17:49;;;;;;;;;;;19.20;87.10;;;;;;5071478;28;20003;-77
2023/05/21 00:20:15;;;;;;;;;;;19.20;88.00;;;;;;5071746;28;20002;-76
2023/05/21 00:22:41;;;;;;;;;;;19.10;88.70;;;;;;5071166;28;20281;-78
2023/05/21 00:25:07;;;;;;;;;;;19.00;89.30;;;;;;5071380;28;19969;-78
2023/05/21 00:27:32;;;;;;;;;;;19.00;89.60;;;;;;5071162;28;20364;-78
2023/05/21 00:29:58;;;;;;;;;;;18.90;90.20;;;;;;5071323;28;19920;-77
2023/05/21 00:32:23;;;;;;;;;;;18.80;90.20;;;;;;5071176;28;19916;-78
2023/05/21 00:34:49;;;;;;;;;;;18.70;91.00;;;;;;5071056;28;19948;-78
2023/05/21 00:37:15;;;;;;;;;;;18.60;91.00;;;;;;5071056;28;19908;-77
2023/05/21 00:39:40;;;;;;;;;;;18.60;91.00;;;;;;5071123;28;20045;-77
2023/05/21 00:42:06;;;;;;;;;;;18.60;91.30;;;;;;5070962;28;19909;-78
2023/05/21 00:44:33;;;;;;;;;;;18.60;91.00;;;;;;5071072;28;19919;-76
2023/05/21 00:47:02;;;;;;;;;;;18.60;90.70;;;;;;5069500;28;19915;-78
2023/05/21 00:49:28;;;;;;;;;;;18.60;90.90;;;;;;5070702;28;19904;-77
2023/05/21 00:51:54;;;;;;;;;;;18.50;91.20;;;;;;5070794;28;20292;-78
2023/05/21 00:54:20;;;;;;;;;;;18.50;91.20;;;;;;5070920;28;19935;-77
2023/05/21 00:56:45;;;;;;;;;;;18.50;91.00;;;;;;5070849;28;19904;-78
2023/05/21 00:59:11;;;;;;;;;;;18.50;91.00;;;;;;5071072;28;20368;-77
2023/05/21 01:01:36;;;;;;;;;;;18.40;91.40;;;;;;5070632;28;19915;-78
2023/05/21 01:04:02;;;;;;;;;;;18.30;91.70;;;;;;5070700;28;19904;-78
2023/05/21 01:06:28;;;;;;;;;;;18.30;91.90;;;;;;5069583;28;19908;-77
2023/05/21 01:08:57;;;;;;;;;;;18.30;92.20;;;;;;5070209;28;20434;-78
2023/05/21 01:11:26;;;;;;;;;;;18.20;92.10;;;;;;5086051;28;20398;-78
2023/05/21 01:13:51;;;;;;;;;;;18.20;91.90;;;;;;5070432;28;19916;-78
2023/05/21 01:16:17;;;;;;;;;;;18.30;91.40;;;;;;5070496;28;19908;-78
2023/05/21 01:18:43;;;;;;;;;;;18.40;91.00;;;;;;5070014;28;20372;-78
2023/05/21 01:21:09;;;;;;;;;;;18.50;89.30;;;;;;5070298;28;19904;-77
2023/05/21 01:23:35;;;;;;;;;;;18.60;87.00;;;;;;5070269;28;19958;-77
2023/05/21 01:26:00;;;;;;;;;;;18.70;86.40;;;;;;5085648;28;19998;-78
2023/05/21 01:28:26;;;;;;;;;;;18.70;86.80;;;;;;5068823;28;20003;-76
2023/05/21 01:30:52;;;;;;;;;;;18.60;85.80;;;;;;5085361;28;19930;-78
2023/05/21 01:33:20;;;;;;;;;;;18.60;85.40;;;;;;5069921;28;19916;-77
2023/05/21 01:35:51;;;;;;;;;;;18.60;85.50;;;;;;5070067;28;19904;-77
2023/05/21 01:38:21;;;;;;;;;;;18.60;85.60;;;;;;5070672;28;19910;-77
2023/05/21 01:40:57;;;;;;;;;;;18.60;85.30;;;;;;5070222;28;19931;-78
2023/05/21 01:43:24;;;;;;;;;;;18.60;84.90;;;;;;5068434;28;19908;-78
2023/05/21 01:45:52;;;;;;;;;;;18.60;84.70;;;;;;5070073;28;19905;-77
2023/05/21 01:48:18;;;;;;;;;;;18.50;84.70;;;;;;5069796;28;19995;-78
2023/05/21 01:50:44;;;;;;;;;;;18.50;84.00;;;;;;5069589;28;19991;-79
2023/05/21 01:53:10;;;;;;;;;;;18.50;83.50;;;;;;5069677;28;19913;-76
2023/05/21 01:55:38;;;;;;;;;;;18.50;82.80;;;;;;5069712;28;20377;-77
2023/05/21 01:58:03;;;;;;;;;;;18.60;81.90;;;;;;5069600;28;19908;-78
2023/05/21 02:00:31;;;;;;;;;;;18.60;82.00;;;;;;5069726;28;20035;-78
2023/05/21 02:02:57;;;;;;;;;;;18.70;81.70;;;;;;5069543;28;19913;-79
2023/05/21 02:05:23;;;;;;;;;;;18.60;82.60;;;;;;5085115;28;20273;-78
2023/05/21 02:07:49;;;;;;;;;;;18.50;82.80;;;;;;5069322;28;19961;-77
2023/05/21 02:10:15;;;;;;;;;;;18.40;83.60;;;;;;5069273;28;19912;-77
2023/05/21 02:12:42;;;;;;;;;;;18.30;83.40;;;;;;5069139;28;19982;-77
2023/05/21 02:15:07;;;;;;;;;;;18.30;84.40;;;;;;5070074;28;20369;-77
2023/05/21 02:17:33;;;;;;;;;;;18.30;84.60;;;;;;5068776;28;19934;-78
2023/05/21 02:20:11;;;;;;;;;;;18.20;85.30;;;;;;5068747;28;19905;-77
2023/05/21 02:22:40;;;;;;;;;;;18.20;85.20;;;;;;5069234;28;19915;-77
2023/05/21 02:25:06;;;;;;;;;;;18.20;85.80;;;;;;5069058;28;20280;-77
2023/05/21 02:27:34;;;;;;;;;;;18.20;86.40;;;;;;5069061;28;19904;-78
2023/05/21 02:30:03;;;;;;;;;;;18.20;87.10;;;;;;5069079;28;19999;-78
2023/05/21 02:32:30;;;;;;;;;;;18.20;87.80;;;;;;5068965;28;19936;-78
2023/05/21 02:34:57;;;;;;;;;;;18.30;87.10;;;;;;5068839;28;19947;-77
2023/05/21 02:37:24;;;;;;;;;;;18.30;86.50;;;;;;5084756;28;20003;-78
2023/05/21 02:39:49;;;;;;;;;;;18.40;86.40;;;;;;5068960;28;19994;-78
2023/05/21 02:42:15;;;;;;;;;;;18.40;85.80;;;;;;5068800;28;19995;-78
2023/05/21 02:44:40;;;;;;;;;;;18.40;86.00;;;;;;5068593;28;20365;-78
2023/05/21 02:47:09;;;;;;;;;;;18.50;84.90;;;;;;5067480;28;19935;-77
2023/05/21 02:49:34;;;;;;;;;;;18.60;83.10;;;;;;5068723;28;19909;-78
2023/05/21 02:52:00;;;;;;;;;;;18.60;83.20;;;;;;5068687;28;19912;-78
2023/05/21 02:54:25;;;;;;;;;;;18.70;81.50;;;;;;5068617;28;19905;-78
2023/05/21 02:56:51;;;;;;;;;;;18.70;81.30;;;;;;5068553;28;19962;-77
2023/05/21 02:59:16;;;;;;;;;;;18.80;81.00;;;;;;5068814;28;19923;-78
2023/05/21 03:01:43;;;;;;;;;;;18.80;80.40;;;;;;5068632;28;19912;-76
2023/05/21 03:04:09;;;;;;;;;;;18.80;81.10;;;;;;5084723;28;19907;-77
2023/05/21 03:06:35;;;;;;;;;;;18.80;80.10;;;;;;5068491;28;19912;-77
2023/05/21 03:09:01;;;;;;;;;;;18.80;80.50;;;;;;5083955;28;19908;-79
2023/05/21 03:11:27;;;;;;;;;;;18.90;80.10;;;;;;5068554;28;20490;-78
2023/05/21 03:13:52;;;;;;;;;;;18.90;80.30;;;;;;5068539;28;19917;-78
2023/05/21 03:16:18;;;;;;;;;;;18.90;80.60;;;;;;5068415;28;19954;-77
2023/05/21 03:18:43;;;;;;;;;;;18.90;81.30;;;;;;5083784;28;20391;-77
2023/05/21 03:21:12;;;;;;;;;;;18.90;81.70;;;;;;5066917;28;19956;-77
2023/05/21 03:23:38;;;;;;;;;;;19.00;82.80;;;;;;5083943;28;19912;-77
2023/05/21 03:26:03;;;;;;;;;;;18.90;83.10;;;;;;5068169;28;20338;-78
2023/05/21 03:28:30;;;;;;;;;;;18.90;84.20;;;;;;5068410;28;20351;-77
2023/05/21 03:30:55;;;;;;;;;;;18.80;85.00;;;;;;5071731;28;19927;-77
2023/05/21 03:33:21;;;;;;;;;;;18.80;86.10;;;;;;5072063;28;19916;-77
2023/05/21 03:35:47;;;;;;;;;;;18.80;87.10;;;;;;5072080;28;20024;-78
2023/05/21 03:38:12;;;;;;;;;;;18.80;87.00;;;;;;5072031;28;19912;-78
2023/05/21 03:40:38;;;;;;;;;;;18.90;87.40;;;;;;5072037;28;19915;-77
2023/05/21 03:43:03;;;;;;;;;;;19.00;87.10;;;;;;5087679;28;20588;-78
2023/05/21 03:45:29;;;;;;;;;;;19.00;87.90;;;;;;5072130;28;19910;-78
2023/05/21 03:47:55;;;;;;;;;;;19.10;88.10;;;;;;5071914;28;19957;-78
2023/05/21 03:50:20;;;;;;;;;;;19.10;88.50;;;;;;5071994;28;20319;-78
2023/05/21 03:52:46;;;;;;;;;;;19.10;88.50;;;;;;5071674;28;20392;-77
2023/05/21 03:55:11;;;;;;;;;;;19.20;86.60;;;;;;5071785;28;19962;-77
2023/05/21 03:57:37;;;;;;;;;;;19.30;86.90;;;;;;5071973;28;19908;-78
2023/05/21 04:00:04;;;;;;;;;;;19.30;86.80;;;;;;5071622;28;19986;-77
2023/05/21 04:02:30;;;;;;;;;;;19.40;85.70;;;;;;5071799;28;19909;-77
2023/05/21 04:04:55;;;;;;;;;;;19.60;85.40;;;;;;5071380;28;19908;-77
2023/05/21 04:07:21;;;;;;;;;;;19.70;84.30;;;;;;5071610;28;20388;-76
2023/05/21 04:09:47;;;;;;;;;;;19.80;83.90;;;;;;5070217;28;19916;-78
2023/05/21 04:12:12;;;;;;;;;;;19.90;83.30;;;;;;5071271;28;19997;-78
2023/05/21 04:14:38;;;;;;;;;;;19.90;83.30;;;;;;5087020;28;20069;-77
2023/05/21 04:17:04;;;;;;;;;;;20.00;82.40;;;;;;5071331;28;20382;-78
2023/05/21 04:19:30;;;;;;;;;;;20.10;83.40;;;;;;5069798;28;20422;-76
2023/05/21 04:21:56;;;;;;;;;;;20.20;80.40;;;;;;5071355;28;19959;-78
2023/05/21 04:24:22;;;;;;;;;;;20.40;80.10;;;;;;5071263;28;19904;-77
2023/05/21 04:26:48;;;;;;;;;;;20.50;79.90;;;;;;5071119;28;19916;-77
2023/05/21 04:29:16;;;;;;;;;;;20.50;79.60;;;;;;5071083;28;20624;-79
2023/05/21 04:31:42;;;;;;;;;;;20.60;78.50;;;;;;5071160;28;19908;-78
2023/05/21 04:34:08;;;;;;;;;;;20.60;77.70;;;;;;5086603;28;20280;-78
2023/05/21 04:36:33;;;;;;;;;;;20.70;76.70;;;;;;5071187;28;19908;-78
2023/05/21 04:39:00;;;;;;;;;;;20.70;76.40;;;;;;5071151;28;20262;-77
2023/05/21 04:41:25;;;;;;;;;;;20.70;76.40;;;;;;5069967;28;19974;-76
2023/05/21 04:43:53;;;;;;;;;;;20.80;77.00;;;;;;5071060;28;19912;-77
2023/05/21 04:46:23;;;;;;;;;;;20.90;77.20;;;;;;5086508;28;20031;-78
2023/05/21 04:48:52;;;;;;;;;;;21.00;76.80;;;;;;5069313;28;20285;-78
2023/05/21 04:51:18;;;;;;;;;;;21.00;76.30;;;;;;5069485;28;19905;-77
2023/05/21 04:53:43;;;;;;;;;;;21.10;77.10;;;;;;5071072;28;20284;-77
2023/05/21 04:56:09;;;;;;;;;;;21.30;75.40;;;;;;5070564;28;20681;-76
2023/05/21 04:58:34;;;;;;;;;;;21.30;75.70;;;;;;5070596;28;19911;-79
2023/05/21 05:01:02;;;;;;;;;;;21.20;75.80;;;;;;5069701;28;19966;-78
2023/05/21 05:03:28;;;;;;;;;;;21.30;75.60;;;;;;5070499;28;19908;-77
2023/05/21 05:05:53;;;;;;;;;;;21.40;75.00;;;;;;5070441;28;20375;-77
2023/05/21 05:08:19;;;;;;;;;;;21.50;74.70;;;;;;5069080;28;19916;-77
2023/05/21 05:10:44;;;;;;;;;;;21.60;74.10;;;;;;5070121;28;19908;-77
2023/05/21 05:13:11;;;;;;;;;;;21.80;73.70;;;;;;5070099;28;19959;-77
2023/05/21 05:15:36;;;;;;;;;;;21.90;73.10;;;;;;5069702;28;19954;-77
2023/05/21 05:18:02;;;;;;;;;;;21.90;72.40;;;;;;5085718;28;20315;-77
2023/05/21 05:20:27;;;;;;;;;;;21.90;73.10;;;;;;5070216;28;19970;-76
2023/05/21 05:22:53;;;;;;;;;;;22.00;73.20;;;;;;5069921;28;20319;-77
2023/05/21 05:25:18;;;;;;;;;;;22.20;72.30;;;;;;5069499;28;19909;-77
2023/05/21 05:27:44;;;;;;;;;;;22.30;70.20;;;;;;5069844;28;19904;-77
2023/05/21 05:30:10;;;;;;;;;;;22.30;70.50;;;;;;5085496;28;19987;-77
2023/05/21 05:32:35;;;;;;;;;;;22.30;71.30;;;;;;5069433;28;20358;-77
2023/05/21 05:35:01;;;;;;;;;;;22.40;71.10;;;;;;5069785;28;20027;-76
2023/05/21 05:37:27;;;;;;;;;;;22.50;70.00;;;;;;5069426;28;19908;-77
2023/05/21 05:39:52;;;;;;;;;;;22.50;69.70;;;;;;5069704;28;19908;-77
2023/05/21 05:42:18;;;;;;;;;;;22.60;68.00;;;;;;5069407;28;19905;-77
2023/05/21 05:44:43;;;;;;;;;;;22.70;67.50;;;;;;5069257;28;19908;-78
2023/05/21 05:47:09;;;;;;;;;;;23.10;67.50;;;;;;5069432;28;20384;-77
2023/05/21 05:49:35;;;;;;;;;;;23.50;66.40;;;;;;5069484;28;19908;-78
2023/05/21 05:52:01;;;;;;;;;;;24.20;64.10;;;;;;5069451;28;19919;-77
2023/05/21 05:54:26;;;;;;;;;;;25.10;63.00;;;;;;5069158;28;20019;-77
2023/05/21 05:56:52;;;;;;;;;;;25.70;59.30;;;;;;5069110;28;20005;-78
2023/05/21 05:59:17;;;;;;;;;;;25.80;57.90;;;;;;5067949;28;19908;-77
2023/05/21 06:01:43;;;;;;;;;;;26.20;57.50;;;;;;5084746;28;19908;-75
2023/05/21 06:04:09;;;;;;;;;;;26.30;56.90;;;;;;5069142;28;20453;-75
2023/05/21 06:06:35;;;;;;;;;;;26.60;55.70;;;;;;5069175;28;19915;-77
2023/05/21 06:09:01;;;;;;;;;;;27.40;55.10;;;;;;5069030;28;19913;-77
2023/05/21 06:11:27;;;;;;;;;;;27.90;53.60;;;;;;5069171;28;19908;-76
2023/05/21 06:13:53;;;;;;;;;;;28.20;51.50;;;;;;5068408;28;19952;-75
2023/05/21 06:16:18;;;;;;;;;;;28.50;51.10;;;;;;5068877;28;19943;-76
2023/05/21 06:18:44;;;;;;;;;;;28.50;50.90;;;;;;5068981;28;19915;-77
2023/05/21 06:21:09;;;;;;;;;;;28.90;50.40;;;;;;5069015;28;19904;-77
2023/05/21 06:23:36;;;;;;;;;;;29.00;49.40;;;;;;5068928;28;19912;-76
2023/05/21 06:26:02;;;;;;;;;;;29.30;48.50;;;;;;5068733;28;20403;-77
2023/05/21 06:28:28;;;;;;;;;;;29.50;48.30;;;;;;5068744;28;19908;-76
2023/05/21 06:30:53;;;;;;;;;;;29.60;47.70;;;;;;5068520;28;19920;-76
2023/05/21 06:33:19;;;;;;;;;;;29.60;46.80;;;;;;5068736;28;20433;-76
2023/05/21 06:35:44;;;;;;;;;;;29.50;46.20;;;;;;5068881;28;19915;-76
2023/05/21 06:38:10;;;;;;;;;;;29.70;46.60;;;;;;5068619;28;19928;-76
2023/05/21 06:40:35;;;;;;;;;;;30.00;46.30;;;;;;5069171;28;19909;-76
2023/05/21 06:43:03;;;;;;;;;;;30.30;45.50;;;;;;5067382;28;19991;-77
2023/05/21 06:45:29;;;;;;;;;;;30.50;45.60;;;;;;5069275;28;19908;-76
2023/05/21 06:47:54;;;;;;;;;;;30.40;45.80;;;;;;5068627;28;20319;-76
2023/05/21 06:50:20;;;;;;;;;;;30.30;47.70;;;;;;5068716;28;19908;-76
2023/05/21 06:52:45;;;;;;;;;;;30.60;45.40;;;;;;5068394;28;19955;-78
2023/05/21 06:55:11;;;;;;;;;;;30.40;46.40;;;;;;5068691;28;19919;-76
2023/05/21 06:57:37;;;;;;;;;;;30.20;47.50;;;;;;5068514;28;20361;-76
2023/05/21 07:00:03;;;;;;;;;;;30.50;46.60;;;;;;5067798;28;19916;-76
2023/05/21 07:02:29;;;;;;;;;;;30.70;46.30;;;;;;5068786;28;19911;-77
2023/05/21 07:04:55;;;;;;;;;;;30.70;45.90;;;;;;5070017;28;19908;-76
2023/05/21 07:07:21;;;;;;;;;;;30.70;45.90;;;;;;5072432;28;19913;-77
2023/05/21 07:09:46;;;;;;;;;;;30.50;45.60;;;;;;5072489;28;19912;-76
2023/05/21 07:12:12;;;;;;;;;;;30.30;46.10;;;;;;5071419;28;20387;-76
2023/05/21 07:14:37;;;;;;;;;;;30.30;46.30;;;;;;5071077;28;19904;-77
2023/05/21 07:17:03;;;;;;;;;;;30.40;46.80;;;;;;5072174;28;19908;-76
2023/05/21 07:19:29;;;;;;;;;;;30.20;46.50;;;;;;5072512;28;19904;-76
2023/05/21 07:21:55;;;;;;;;;;;30.00;47.50;;;;;;5072507;28;19915;-76
2023/05/21 07:24:21;;;;;;;;;;;29.90;47.40;;;;;;5072475;28;20437;-77
2023/05/21 07:26:46;;;;;;;;;;;29.80;49.00;;;;;;5072055;28;19983;-77
2023/05/21 07:29:12;;;;;;;;;;;29.90;48.30;;;;;;5072122;28;19920;-75
2023/05/21 07:31:37;;;;;;;;;;;30.10;48.40;;;;;;5071975;28;19905;-76
2023/05/21 07:34:03;;;;;;;;;;;29.80;47.20;;;;;;5072162;28;19916;-75
2023/05/21 07:36:29;;;;;;;;;;;30.10;48.60;;;;;;5087878;28;20323;-76
2023/05/21 07:38:55;;;;;;;;;;;30.10;49.40;;;;;;5070762;28;19909;-75
2023/05/21 07:41:21;;;;;;;;;;;30.40;48.00;;;;;;5072285;28;19974;-76
2023/05/21 07:43:47;;;;;;;;;;;30.50;48.40;;;;;;5071976;28;19962;-76
2023/05/21 07:46:12;;;;;;;;;;;30.60;48.80;;;;;;5071957;28;20337;-77
2023/05/21 07:48:38;;;;;;;;;;;30.40;48.00;;;;;;5087437;28;20407;-76
2023/05/21 07:51:04;;;;;;;;;;;30.60;47.20;;;;;;5071887;28;20280;-77
2023/05/21 07:53:31;;;;;;;;;;;30.40;48.20;;;;;;5071906;28;19921;-77
2023/05/21 07:55:58;;;;;;;;;;;30.20;48.80;;;;;;5072053;28;19915;-77
2023/05/21 07:58:24;;;;;;;;;;;30.60;48.40;;;;;;5071632;28;20241;-78
2023/05/21 08:00:49;;;;;;;;;;;30.60;48.30;;;;;;5071587;28;20438;-75
2023/05/21 08:03:15;;;;;;;;;;;30.40;48.40;;;;;;5071581;28;20458;-77
2023/05/21 08:05:43;;;;;;;;;;;30.60;47.40;;;;;;5071575;28;19912;-77
2023/05/21 08:08:09;;;;;;;;;;;30.50;47.40;;;;;;5071321;28;19911;-77
2023/05/21 08:10:35;;;;;;;;;;;30.50;47.60;;;;;;5071272;28;19908;-77
2023/05/21 08:13:01;;;;;;;;;;;30.00;46.80;;;;;;5071061;28;19972;-77
2023/05/21 08:15:26;;;;;;;;;;;29.90;47.90;;;;;;5071338;28;19908;-77
2023/05/21 08:17:52;;;;;;;;;;;29.70;48.10;;;;;;5071236;28;19969;-77
2023/05/21 08:20:19;;;;;;;;;;;29.90;48.70;;;;;;5071198;28;19943;-77
2023/05/21 08:22:44;;;;;;;;;;;29.80;48.30;;;;;;5070863;28;19908;-77
2023/05/21 08:25:10;;;;;;;;;;;29.90;48.90;;;;;;5071045;28;19908;-77
2023/05/21 08:27:36;;;;;;;;;;;30.00;48.70;;;;;;5071015;28;20497;-77
2023/05/21 08:30:01;;;;;;;;;;;30.30;46.80;;;;;;5070650;28;19924;-77
2023/05/21 08:32:27;;;;;;;;;;;30.10;46.80;;;;;;5070900;28;20388;-77
2023/05/21 08:34:53;;;;;;;;;;;30.20;47.40;;;;;;5069608;28;19989;-77
2023/05/21 08:37:20;;;;;;;;;;;30.00;48.50;;;;;;5070875;28;20372;-77
2023/05/21 08:39:45;;;;;;;;;;;30.10;47.00;;;;;;5070959;28;19935;-77
2023/05/21 08:42:28;;;;;;;;;;;29.80;46.50;;;;;;5086185;28;19913;-78
2023/05/21 08:44:57;;;;;;;;;;;30.30;48.60;;;;;;5070728;28;19905;-77
2023/05/21 08:47:24;;;;;;;;;;;30.50;47.80;;;;;;5070725;28;19908;-77
2023/05/21 08:49:51;;;;;;;;;;;30.30;46.20;;;;;;5070732;28;19909;-78
2023/05/21 08:52:17;;;;;;;;;;;30.40;46.80;;;;;;5071076;28;20438;-77
2023/05/21 08:54:43;;;;;;;;;;;30.50;47.70;;;;;;5070215;28;19920;-77
2023/05/21 08:57:08;;;;;;;;;;;30.50;45.20;;;;;;5070603;28;20384;-76
2023/05/21 08:59:36;;;;;;;;;;;30.50;47.80;;;;;;5070363;28;20196;-74
2023/05/21 09:02:03;;;;;;;;;;;30.70;46.00;;;;;;5085830;28;20004;-75
2023/05/21 09:04:30;;;;;;;;;;;30.70;44.50;;;;;;5070862;28;19904;-74
2023/05/21 09:06:56;;;;;;;;;;;30.40;47.00;;;;;;5069946;28;19908;-74
2023/05/21 09:09:31;;;;;;;;;;;30.50;46.50;;;;;;5068890;28;19958;-74
2023/05/21 09:11:57;;;;;;;;;;;30.70;45.40;;;;;;5070262;28;19986;-74
2023/05/21 09:14:23;;;;;;;;;;;30.80;46.00;;;;;;5070234;28;20339;-74
2023/05/21 09:16:48;;;;;;;;;;;31.00;45.10;;;;;;5069821;28;19914;-76
2023/05/21 09:19:14;;;;;;;;;;;31.20;44.80;;;;;;5070681;28;20281;-77
2023/05/21 09:21:40;;;;;;;;;;;31.20;44.50;;;;;;5069968;28;19909;-76
2023/05/21 09:24:08;;;;;;;;;;;31.50;44.70;;;;;;5069993;28;20351;-76
2023/05/21 09:26:34;;;;;;;;;;;31.60;44.70;;;;;;5069729;28;20343;-76
2023/05/21 09:29:00;;;;;;;;;;;31.60;44.00;;;;;;5069042;28;19916;-76
2023/05/21 09:31:26;;;;;;;;;;;31.60;42.80;;;;;;5069907;28;19939;-76
2023/05/21 09:33:52;;;;;;;;;;;31.30;45.90;;;;;;5069627;28;20392;-76
2023/05/21 09:36:21;;;;;;;;;;;31.20;44.60;;;;;;5069815;28;19915;-75
2023/05/21 09:38:47;;;;;;;;;;;30.90;45.30;;;;;;5069403;28;19904;-77
2023/05/21 09:41:13;;;;;;;;;;;30.90;45.40;;;;;;5069580;28;19931;-76
2023/05/21 09:43:40;;;;;;;;;;;31.20;44.10;;;;;;5069590;28;19908;-76
2023/05/21 09:46:06;;;;;;;;;;;31.00;45.10;;;;;;5069729;28;20297;-76
2023/05/21 09:48:33;;;;;;;;;;;30.70;45.10;;;;;;5069573;28;20446;-76
2023/05/21 09:51:15;;;;;;;;;;;30.50;45.80;;;;;;5069245;28;19915;-76
2023/05/21 09:53:44;;;;;;;;;;;30.40;46.60;;;;;;5069318;28;19920;-76
2023/05/21 09:56:09;;;;;;;;;;;30.30;47.60;;;;;;5068083;28;19982;-76
2023/05/21 09:58:37;;;;;;;;;;;30.20;47.10;;;;;;5069660;28;20363;-76
2023/05/21 10:01:02;;;;;;;;;;;30.20;48.30;;;;;;5069219;28;20408;-75
2023/05/21 10:03:28;;;;;;;;;;;30.10;47.80;;;;;;5069231;28;19908;-75
2023/05/21 10:05:55;;;;;;;;;;;29.40;47.50;;;;;;5069483;28;19916;-75
2023/05/21 10:08:22;;;;;;;;;;;29.20;47.80;;;;;;5069299;28;20737;-76
2023/05/21 10:10:48;;;;;;;;;;;29.00;49.50;;;;;;5068826;28;19904;-75
2023/05/21 10:13:17;;;;;;;;;;;28.70;50.50;;;;;;5069262;28;20434;-75
2023/05/21 10:15:47;;;;;;;;;;;28.20;50.90;;;;;;5068982;28;19904;-74
2023/05/21 10:18:12;;;;;;;;;;;27.80;53.00;;;;;;5069118;28;19911;-75
2023/05/21 10:20:38;;;;;;;;;;;27.70;53.50;;;;;;5084381;28;19904;-74
2023/05/21 10:23:05;;;;;;;;;;;27.60;53.00;;;;;;5067611;28;19908;-75
2023/05/21 10:25:31;;;;;;;;;;;27.60;54.40;;;;;;5068966;28;19905;-75
2023/05/21 10:27:56;;;;;;;;;;;27.50;53.80;;;;;;5068616;28;20257;-75
2023/05/21 10:30:23;;;;;;;;;;;27.70;54.50;;;;;;5068622;28;19920;-75
2023/05/21 10:32:48;;;;;;;;;;;27.60;53.10;;;;;;5068490;28;19919;-74
2023/05/21 10:35:17;;;;;;;;;;;27.50;54.60;;;;;;5068884;28;20299;-74
2023/05/21 10:37:43;;;;;;;;;;;27.30;55.30;;;;;;5068883;28;19915;-75
2023/05/21 10:40:09;;;;;;;;;;;27.30;54.90;;;;;;5068166;28;19904;-75
2023/05/21 10:42:35;;;;;;;;;;;27.20;54.50;;;;;;5067720;28;20002;-74
2023/05/21 10:45:21;;;;;;;;;;;27.10;53.60;;;;;;5068460;28;20015;-75
2023/05/21 10:48:05;;;;;;;;;;;27.10;54.90;;;;;;5068741;28;19908;-75
2023/05/21 10:50:49;;;;;;;;;;;27.00;52.80;;;;;;5068494;28;20303;-75
2023/05/21 10:53:20;;;;;;;;;;;27.00;53.50;;;;;;5068546;28;20443;-75
2023/05/21 10:55:46;;;;;;;;;;;26.90;54.00;;;;;;5068592;28;19911;-74
2023/05/21 10:58:27;;;;;;;;;;;26.80;55.40;;;;;;5068347;28;19908;-75
2023/05/21 11:00:54;;;;;;;;;;;26.80;55.90;;;;;;5068155;28;19908;-75
2023/05/21 11:03:20;;;;;;;;;;;26.80;52.20;;;;;;5068859;28;19919;-74
2023/05/21 11:05:52;;;;;;;;;;;26.80;54.70;;;;;;5068095;28;19909;-75
2023/05/21 11:08:21;;;;;;;;;;;26.90;54.30;;;;;;5066815;28;19931;-74
2023/05/21 11:10:50;;;;;;;;;;;26.90;51.60;;;;;;5067998;28;20289;-75
2023/05/21 11:13:18;;;;;;;;;;;27.00;52.20;;;;;;5068356;28;19920;-75
2023/05/21 11:16:00;;;;;;;;;;;27.00;52.50;;;;;;5068442;28;19909;-75
2023/05/21 11:18:34;;;;;;;;;;;27.00;49.80;;;;;;5068455;28;19904;-74
2023/05/21 11:21:10;;;;;;;;;;;27.10;52.60;;;;;;5068153;28;19923;-75
2023/05/21 11:23:51;;;;;;;;;;;27.10;53.00;;;;;;5068276;28;19908;-74
2023/05/21 11:26:18;;;;;;;;;;;27.00;51.00;;;;;;5068048;28;19939;-75
2023/05/21 11:28:43;;;;;;;;;;;26.90;52.50;;;;;;5068059;28;19908;-76
2023/05/21 11:31:29;;;;;;;;;;;26.90;50.10;;;;;;5083893;28;19939;-74
2023/05/21 11:34:10;;;;;;;;;;;26.80;47.20;;;;;;5068015;28;19968;-74
2023/05/21 11:36:36;;;;;;;;;;;26.90;49.20;;;;;;5068301;28;20439;-74
2023/05/21 11:39:20;;;;;;;;;;;26.90;49.80;;;;;;5083715;28;19955;-74
2023/05/21 11:41:55;;;;;;;;;;;26.90;49.30;;;;;;5068167;28;19962;-74
2023/05/21 11:44:37;;;;;;;;;;;26.80;50.90;;;;;;5068218;28;19954;-75
2023/05/21 11:47:03;;;;;;;;;;;26.90;50.30;;;;;;5066705;28;19957;-75
2023/05/21 11:49:29;;;;;;;;;;;27.00;50.60;;;;;;5082483;28;19908;-76
2023/05/21 11:51:55;;;;;;;;;;;27.00;47.40;;;;;;5070918;28;20014;-73
2023/05/21 11:54:21;;;;;;;;;;;27.10;48.10;;;;;;5071631;28;20373;-76
2023/05/21 11:56:47;;;;;;;;;;;27.10;47.80;;;;;;5071390;28;19916;-76
2023/05/21 11:59:13;;;;;;;;;;;27.10;49.10;;;;;;5071389;28;20426;-75
2023/05/21 12:01:40;;;;;;;;;;;27.30;49.70;;;;;;5071650;28;20456;-75
2023/05/21 12:04:06;;;;;;;;;;;27.20;50.80;;;;;;5069826;28;20050;-75
2023/05/21 12:06:33;;;;;;;;;;;27.30;49.30;;;;;;5086356;28;19904;-75
2023/05/21 12:08:58;;;;;;;;;;;27.20;49.20;;;;;;5071182;28;20297;-75
2023/05/21 12:11:25;;;;;;;;;;;27.20;48.80;;;;;;5071411;28;19961;-74
2023/05/21 12:13:51;;;;;;;;;;;27.10;50.60;;;;;;5071390;28;20003;-75
2023/05/21 12:16:16;;;;;;;;;;;27.10;48.60;;;;;;5068975;28;20343;-75
2023/05/21 12:18:42;;;;;;;;;;;27.10;50.20;;;;;;5071076;28;20390;-74
2023/05/21 12:21:07;;;;;;;;;;;27.00;49.70;;;;;;5071030;28;20281;-75
2023/05/21 12:23:33;;;;;;;;;;;27.10;50.60;;;;;;5071264;28;20273;-75
2023/05/21 12:25:59;;;;;;;;;;;27.10;49.10;;;;;;5070850;28;19905;-74
2023/05/21 12:28:24;;;;;;;;;;;27.00;50.50;;;;;;5071247;28;19915;-75
2023/05/21 12:30:50;;;;;;;;;;;27.00;52.30;;;;;;5070639;28;19960;-74
2023/05/21 12:33:18;;;;;;;;;;;27.10;52.50;;;;;;5070862;28;19913;-75
2023/05/21 12:35:45;;;;;;;;;;;27.20;49.60;;;;;;5070984;28;19909;-76
2023/05/21 12:38:11;;;;;;;;;;;27.20;48.70;;;;;;5070993;28;20365;-75
2023/05/21 12:40:36;;;;;;;;;;;27.10;48.80;;;;;;5069127;28;19916;-74
2023/05/21 12:43:02;;;;;;;;;;;27.10;51.00;;;;;;5070885;28;19908;-74
2023/05/21 12:45:29;;;;;;;;;;;27.10;50.90;;;;;;5070811;28;20004;-74
2023/05/21 12:47:55;;;;;;;;;;;27.10;50.70;;;;;;5070779;28;20006;-74
2023/05/21 12:50:21;;;;;;;;;;;27.00;50.50;;;;;;5071341;28;20452;-75
2023/05/21 12:52:46;;;;;;;;;;;26.90;50.80;;;;;;5070423;28;19912;-75
2023/05/21 12:55:12;;;;;;;;;;;26.90;51.00;;;;;;5071109;28;19904;-74
2023/05/21 12:57:38;;;;;;;;;;;26.90;52.10;;;;;;5070655;28;19912;-75
2023/05/21 13:00:07;;;;;;;;;;;27.00;51.90;;;;;;5070520;28;19904;-73
2023/05/21 13:02:34;;;;;;;;;;;27.10;50.60;;;;;;5069091;28;19908;-74
2023/05/21 13:05:01;;;;;;;;;;;27.00;51.40;;;;;;5070479;28;19943;-75
2023/05/21 13:07:27;;;;;;;;;;;26.90;51.50;;;;;;5070490;28;19904;-74
2023/05/21 13:09:53;;;;;;;;;;;26.80;51.50;;;;;;5070593;28;20046;-74
2023/05/21 13:12:22;;;;;;;;;;;26.90;52.10;;;;;;5070526;28;20006;-74
2023/05/21 13:14:52;;;;;;;;;;;27.00;52.10;;;;;;5070184;28;19912;-75
2023/05/21 13:17:18;;;;;;;;;;;26.90;53.00;;;;;;5070260;28;19912;-75
2023/05/21 13:20:03;;;;;;;;;;;27.00;52.90;;;;;;5070309;28;19962;-74
2023/05/21 13:22:28;;;;;;;;;;;27.10;51.50;;;;;;5070399;28;20355;-75
2023/05/21 13:24:54;;;;;;;;;;;27.00;52.30;;;;;;5068987;28;19904;-75
2023/05/21 13:27:20;;;;;;;;;;;27.10;50.60;;;;;;5070063;28;20144;-75
2023/05/21 13:29:45;;;;;;;;;;;26.90;50.50;;;;;;5069922;28;19916;-76
2023/05/21 13:32:11;;;;;;;;;;;26.90;51.00;;;;;;5070082;28;19958;-76
2023/05/21 13:34:36;;;;;;;;;;;27.00;50.80;;;;;;5069736;28;19913;-74
2023/05/21 13:37:02;;;;;;;;;;;26.90;50.70;;;;;;5070067;28;19908;-74
2023/05/21 13:39:27;;;;;;;;;;;26.90;50.80;;;;;;5070529;28;19904;-76
2023/05/21 13:41:53;;;;;;;;;;;26.90;51.50;;;;;;5069791;28;19915;-76
2023/05/21 13:44:18;;;;;;;;;;;26.80;50.10;;;;;;5069793;28;20430;-75
2023/05/21 13:46:44;;;;;;;;;;;26.80;49.20;;;;;;5069773;28;20362;-75
2023/05/21 13:49:09;;;;;;;;;;;26.80;49.10;;;;;;5069686;28;20373;-75
2023/05/21 13:51:35;;;;;;;;;;;26.80;48.00;;;;;;5070015;28;20405;-76
2023/05/21 13:54:00;;;;;;;;;;;26.80;47.10;;;;;;5069281;28;20411;-74
2023/05/21 13:56:26;;;;;;;;;;;26.70;47.20;;;;;;5069481;28;20436;-74
2023/05/21 13:58:51;;;;;;;;;;;26.70;47.60;;;;;;5069207;28;19918;-76
2023/05/21 14:01:17;;;;;;;;;;;26.80;47.30;;;;;;5069297;28;20019;-75
2023/05/21 14:03:42;;;;;;;;;;;26.80;48.30;;;;;;5069252;28;20433;-76
2023/05/21 14:06:08;;;;;;;;;;;26.70;47.90;;;;;;5069208;28;20381;-75
2023/05/21 14:08:34;;;;;;;;;;;26.70;48.60;;;;;;5069136;28;19905;-75
2023/05/21 14:11:00;;;;;;;;;;;26.60;48.60;;;;;;5068997;28;20439;-75
2023/05/21 14:13:26;;;;;;;;;;;26.60;49.20;;;;;;5068807;28;20361;-76